createdAt,value
2023-01-13T00:00:21.610Z,189.02
2023-01-13T00:01:21.539Z,185.66
2023-01-13T00:02:21.538Z,185.77
2023-01-13T00:03:21.476Z,186.54
2023-01-13T00:04:21.451Z,186.08
2023-01-13T00:05:21.421Z,184.61
2023-01-13T00:06:21.403Z,186.60
2023-01-13T00:07:21.366Z,186.32
2023-01-13T00:08:21.329Z,183.55
2023-01-13T00:09:21.302Z,187.13
2023-01-13T00:10:21.299Z,187.47
2023-01-13T00:11:21.255Z,185.01
2023-01-13T00:12:21.202Z,186.77
2023-01-13T00:13:21.181Z,185.04
2023-01-13T00:14:21.162Z,188.25
2023-01-13T00:15:21.159Z,186.73
2023-01-13T00:16:21.209Z,185.99
2023-01-13T00:17:21.085Z,185.15
2023-01-13T00:18:21.054Z,186.47
2023-01-13T00:19:21.015Z,187.56
2023-01-13T00:20:21.000Z,185.03
2023-01-13T00:21:20.961Z,186.39
2023-01-13T00:22:20.939Z,186.46
2023-01-13T00:23:20.916Z,188.59
2023-01-13T00:24:20.909Z,184.49
2023-01-13T00:25:20.854Z,186.73
2023-01-13T00:26:20.830Z,189.35
2023-01-13T00:27:20.805Z,187.32
2023-01-13T00:28:20.774Z,186.10
2023-01-13T00:29:20.747Z,183.82
2023-01-13T00:30:20.751Z,184.72
2023-01-13T00:31:20.735Z,186.50
2023-01-13T00:32:20.669Z,183.99
2023-01-13T00:33:20.634Z,185.36
2023-01-13T00:34:20.599Z,184.77
2023-01-13T00:35:20.598Z,183.68
2023-01-13T00:36:20.585Z,180.17
2023-01-13T00:37:20.544Z,183.53
2023-01-13T00:38:20.502Z,183.45
2023-01-13T00:39:20.486Z,187.00
2023-01-13T00:40:20.463Z,180.15
2023-01-13T00:41:20.447Z,185.29
2023-01-13T00:42:20.425Z,183.11
2023-01-13T00:43:20.372Z,185.97
2023-01-13T00:44:20.378Z,182.16
2023-01-13T00:45:20.350Z,180.52
2023-01-13T00:46:20.398Z,183.79
2023-01-13T00:47:20.321Z,180.62
2023-01-13T00:48:20.316Z,185.86
2023-01-13T00:49:20.276Z,183.17
2023-01-13T00:50:20.273Z,184.22
2023-01-13T00:51:20.293Z,182.71
2023-01-13T00:52:20.237Z,184.47
2023-01-13T00:53:20.219Z,184.45
2023-01-13T00:54:20.193Z,182.84
2023-01-13T00:55:20.170Z,183.69
2023-01-13T00:56:34.140Z,183.39
2023-01-13T00:57:21.130Z,183.47
2023-01-13T00:58:20.113Z,183.49
2023-01-13T00:59:20.110Z,184.04
2023-01-13T01:00:20.065Z,183.43
2023-01-13T01:01:20.160Z,185.24
2023-01-13T01:02:20.083Z,185.36
2023-01-13T01:03:20.051Z,185.39
2023-01-13T01:04:20.017Z,180.68
2023-01-13T01:05:19.978Z,184.41
2023-01-13T01:06:19.962Z,184.92
2023-01-13T01:07:19.941Z,180.25
2023-01-13T01:08:19.915Z,186.11
2023-01-13T01:09:19.891Z,182.32
2023-01-13T01:10:19.859Z,181.06
2023-01-13T01:11:19.844Z,183.07
2023-01-13T01:12:19.800Z,181.37
2023-01-13T01:13:19.776Z,181.46
2023-01-13T01:14:19.762Z,184.68
2023-01-13T01:15:19.743Z,182.31
2023-01-13T01:16:19.781Z,183.57
2023-01-13T01:17:19.689Z,183.56
2023-01-13T01:18:19.670Z,183.52
2023-01-13T01:19:19.635Z,180.17
2023-01-13T01:20:19.618Z,180.13
2023-01-13T01:21:19.598Z,183.78
2023-01-13T01:22:19.576Z,178.66
2023-01-13T01:23:19.546Z,181.30
2023-01-13T01:24:19.533Z,178.78
2023-01-13T01:25:19.489Z,182.14
2023-01-13T01:26:19.481Z,181.83
2023-01-13T01:27:19.471Z,180.16
2023-01-13T01:28:19.435Z,182.01
2023-01-13T01:29:19.410Z,179.48
2023-01-13T01:30:19.385Z,183.69
2023-01-13T01:31:19.383Z,181.01
2023-01-13T01:32:19.358Z,182.01
2023-01-13T01:33:19.303Z,183.94
2023-01-13T01:34:19.286Z,178.27
2023-01-13T01:35:19.263Z,182.32
2023-01-13T01:36:19.226Z,183.79
2023-01-13T01:37:19.229Z,181.43
2023-01-13T01:38:19.183Z,179.84
2023-01-13T01:39:19.147Z,180.56
2023-01-13T01:40:19.141Z,180.66
2023-01-13T01:41:19.106Z,181.01
2023-01-13T01:42:19.074Z,181.75
2023-01-13T01:43:19.059Z,181.33
2023-01-13T01:44:19.042Z,180.94
2023-01-13T01:45:18.994Z,182.61
2023-01-13T01:46:19.000Z,182.72
2023-01-13T01:47:18.974Z,179.17
2023-01-13T01:48:18.938Z,183.05
2023-01-13T01:49:18.901Z,181.69
2023-01-13T01:50:18.889Z,180.56
2023-01-13T01:51:18.869Z,182.56
2023-01-13T01:52:18.873Z,178.02
2023-01-13T01:53:18.830Z,181.53
2023-01-13T01:54:18.834Z,180.04
2023-01-13T01:55:18.798Z,179.00
2023-01-13T01:56:18.802Z,180.89
2023-01-13T01:57:18.751Z,178.88
2023-01-13T01:58:18.730Z,182.46
2023-01-13T01:59:18.712Z,184.23
2023-01-13T02:00:18.727Z,185.30
2023-01-13T02:01:18.836Z,181.28
2023-01-13T02:02:18.749Z,181.54
2023-01-13T02:03:18.622Z,179.13
2023-01-13T02:04:18.624Z,181.79
2023-01-13T02:05:18.591Z,182.05
2023-01-13T02:06:18.556Z,184.44
2023-01-13T02:07:18.550Z,177.57
2023-01-13T02:08:18.510Z,179.89
2023-01-13T02:09:18.475Z,179.78
2023-01-13T02:10:18.463Z,179.98
2023-01-13T02:11:18.439Z,178.82
2023-01-13T02:12:18.416Z,178.18
2023-01-13T02:13:18.404Z,181.30
2023-01-13T02:14:18.359Z,181.37
2023-01-13T02:15:18.351Z,180.52
2023-01-13T02:16:18.326Z,177.22
2023-01-13T02:17:18.299Z,178.53
2023-01-13T02:18:18.289Z,179.18
2023-01-13T02:19:18.279Z,176.80
2023-01-13T02:20:18.242Z,177.18
2023-01-13T02:21:18.243Z,178.58
2023-01-13T02:22:18.265Z,177.69
2023-01-13T02:23:18.219Z,181.71
2023-01-13T02:24:18.171Z,183.42
2023-01-13T02:25:18.171Z,178.71
2023-01-13T02:26:18.203Z,181.07
2023-01-13T02:27:18.212Z,178.73
2023-01-13T02:28:18.101Z,176.72
2023-01-13T02:29:18.033Z,181.21
2023-01-13T02:30:18.001Z,181.80
2023-01-13T02:31:18.033Z,180.00
2023-01-13T02:32:17.967Z,178.98
2023-01-13T02:33:17.951Z,176.17
2023-01-13T02:34:17.905Z,178.91
2023-01-13T02:35:17.919Z,177.48
2023-01-13T02:36:17.873Z,178.07
2023-01-13T02:37:17.831Z,174.82
2023-01-13T02:38:17.846Z,176.82
2023-01-13T02:39:17.794Z,178.93
2023-01-13T02:40:17.761Z,177.12
2023-01-13T02:41:17.740Z,177.65
2023-01-13T02:42:17.716Z,177.06
2023-01-13T02:43:17.706Z,176.82
2023-01-13T02:44:17.653Z,174.79
2023-01-13T02:45:17.621Z,174.31
2023-01-13T02:46:17.614Z,174.38
2023-01-13T02:47:17.574Z,177.55
2023-01-13T02:48:17.580Z,179.39
2023-01-13T02:49:17.551Z,174.89
2023-01-13T02:50:17.563Z,174.61
2023-01-13T02:51:17.514Z,175.66
2023-01-13T02:52:17.481Z,177.50
2023-01-13T02:53:17.509Z,177.81
2023-01-13T02:54:17.429Z,175.76
2023-01-13T02:55:17.413Z,177.52
2023-01-13T02:56:17.409Z,176.37
2023-01-13T02:57:17.391Z,180.69
2023-01-13T02:58:17.375Z,176.16
2023-01-13T02:59:17.389Z,176.25
2023-01-13T03:00:17.353Z,175.71
2023-01-13T03:01:17.428Z,171.58
2023-01-13T03:02:17.552Z,174.23
2023-01-13T03:03:17.284Z,175.51
2023-01-13T03:04:17.279Z,179.59
2023-01-13T03:05:17.276Z,176.12
2023-01-13T03:06:17.266Z,175.88
2023-01-13T03:07:17.210Z,174.46
2023-01-13T03:08:17.201Z,174.97
2023-01-13T03:09:17.180Z,174.08
2023-01-13T03:10:17.161Z,172.43
2023-01-13T03:11:17.125Z,174.60
2023-01-13T03:12:17.098Z,173.96
2023-01-13T03:13:17.078Z,173.42
2023-01-13T03:14:17.088Z,175.88
2023-01-13T03:15:17.014Z,172.43
2023-01-13T03:16:17.042Z,177.74
2023-01-13T03:17:16.967Z,171.95
2023-01-13T03:18:16.957Z,175.83
2023-01-13T03:19:16.931Z,173.34
2023-01-13T03:20:16.934Z,173.51
2023-01-13T03:21:16.875Z,173.37
2023-01-13T03:22:16.850Z,177.17
2023-01-13T03:23:16.835Z,174.74
2023-01-13T03:24:16.807Z,169.93
2023-01-13T03:25:16.755Z,172.90
2023-01-13T03:26:16.741Z,173.01
2023-01-13T03:27:16.715Z,171.95
2023-01-13T03:28:16.687Z,175.10
2023-01-13T03:29:16.699Z,173.15
2023-01-13T03:30:16.631Z,172.65
2023-01-13T03:31:16.598Z,171.99
2023-01-13T03:32:16.587Z,174.98
2023-01-13T03:33:16.570Z,169.69
2023-01-13T03:34:16.942Z,171.87
2023-01-13T03:35:16.535Z,173.28
2023-01-13T03:36:16.497Z,174.97
2023-01-13T03:37:16.457Z,174.38
2023-01-13T03:38:16.449Z,167.70
2023-01-13T03:39:16.440Z,170.00
2023-01-13T03:40:16.418Z,171.65
2023-01-13T03:41:16.381Z,172.74
2023-01-13T03:42:16.349Z,171.31
2023-01-13T03:43:16.352Z,168.90
2023-01-13T03:44:16.307Z,172.38
2023-01-13T03:45:16.315Z,169.90
2023-01-13T03:46:16.272Z,169.48
2023-01-13T03:47:16.236Z,170.53
2023-01-13T03:48:16.202Z,169.74
2023-01-13T03:49:16.200Z,171.55
2023-01-13T03:50:16.176Z,169.09
2023-01-13T03:51:16.149Z,168.87
2023-01-13T03:52:16.106Z,168.42
2023-01-13T03:53:16.088Z,168.20
2023-01-13T03:54:16.063Z,171.54
2023-01-13T03:55:16.046Z,169.59
2023-01-13T03:56:16.032Z,167.04
2023-01-13T03:57:15.989Z,170.70
2023-01-13T03:58:16.043Z,169.35
2023-01-13T03:59:15.947Z,170.45
2023-01-13T04:00:15.948Z,168.83
2023-01-13T04:01:15.965Z,168.96
2023-01-13T04:02:15.955Z,166.51
2023-01-13T04:03:15.861Z,168.82
2023-01-13T04:04:15.837Z,171.80
2023-01-13T04:05:15.841Z,171.08
2023-01-13T04:06:15.807Z,168.36
2023-01-13T04:07:15.777Z,165.56
2023-01-13T04:08:15.760Z,169.80
2023-01-13T04:09:15.717Z,169.08
2023-01-13T04:10:15.711Z,170.11
2023-01-13T04:11:15.694Z,168.56
2023-01-13T04:12:15.678Z,165.12
2023-01-13T04:13:15.646Z,167.42
2023-01-13T04:14:15.636Z,164.68
2023-01-13T04:15:15.642Z,168.85
2023-01-13T04:16:15.630Z,165.76
2023-01-13T04:17:15.592Z,168.18
2023-01-13T04:18:15.571Z,166.40
2023-01-13T04:19:15.531Z,164.30
2023-01-13T04:20:15.544Z,167.62
2023-01-13T04:21:15.489Z,168.89
2023-01-13T04:22:15.707Z,169.50
2023-01-13T04:23:15.444Z,169.49
2023-01-13T04:24:15.424Z,166.22
2023-01-13T04:25:15.441Z,165.23
2023-01-13T04:26:15.399Z,167.45
2023-01-13T04:27:15.355Z,164.86
2023-01-13T04:28:15.367Z,168.09
2023-01-13T04:29:15.833Z,167.43
2023-01-13T04:30:15.307Z,165.18
2023-01-13T04:31:15.323Z,167.66
2023-01-13T04:32:26.216Z,167.84
2023-01-13T04:33:15.246Z,168.36
2023-01-13T04:34:15.224Z,168.95
2023-01-13T04:35:15.190Z,169.28
2023-01-13T04:36:15.185Z,168.98
2023-01-13T04:37:15.155Z,167.75
2023-01-13T04:38:15.194Z,168.45
2023-01-13T04:39:15.087Z,166.25
2023-01-13T04:40:15.083Z,169.69
2023-01-13T04:41:15.084Z,166.20
2023-01-13T04:42:15.040Z,166.93
2023-01-13T04:43:15.011Z,167.06
2023-01-13T04:44:14.979Z,166.25
2023-01-13T04:45:14.976Z,166.87
2023-01-13T04:46:15.024Z,165.00
2023-01-13T04:47:14.942Z,167.39
2023-01-13T04:48:14.924Z,167.29
2023-01-13T04:49:14.878Z,164.95
2023-01-13T04:50:14.886Z,163.99
2023-01-13T04:51:14.880Z,168.43
2023-01-13T04:52:14.846Z,167.41
2023-01-13T04:53:14.851Z,164.89
2023-01-13T04:54:14.809Z,166.77
2023-01-13T04:55:14.787Z,166.37
2023-01-13T04:56:14.822Z,163.16
2023-01-13T04:57:14.739Z,164.24
2023-01-13T04:58:14.743Z,165.99
2023-01-13T04:59:14.726Z,163.00
2023-01-13T05:00:14.706Z,165.34
2023-01-13T05:01:14.856Z,164.14
2023-01-13T05:02:14.736Z,167.66
2023-01-13T05:03:14.625Z,160.96
2023-01-13T05:04:14.592Z,167.04
2023-01-13T05:05:14.577Z,164.56
2023-01-13T05:06:14.613Z,161.18
2023-01-13T05:07:14.539Z,166.00
2023-01-13T05:08:14.496Z,166.09
2023-01-13T05:09:14.473Z,163.13
2023-01-13T05:10:14.447Z,164.16
2023-01-13T05:11:14.428Z,161.48
2023-01-13T05:12:14.412Z,166.90
2023-01-13T05:13:14.372Z,164.92
2023-01-13T05:14:14.346Z,165.91
2023-01-13T05:15:14.335Z,163.64
2023-01-13T05:16:14.360Z,164.96
2023-01-13T05:17:14.286Z,162.49
2023-01-13T05:18:14.262Z,164.72
2023-01-13T05:19:14.222Z,160.86
2023-01-13T05:20:14.199Z,164.18
2023-01-13T05:21:14.207Z,165.30
2023-01-13T05:22:14.178Z,162.87
2023-01-13T05:23:14.176Z,162.18
2023-01-13T05:24:14.127Z,161.91
2023-01-13T05:25:14.101Z,162.14
2023-01-13T05:26:14.082Z,160.82
2023-01-13T05:27:14.064Z,159.97
2023-01-13T05:28:14.039Z,162.62
2023-01-13T05:29:14.034Z,163.90
2023-01-13T05:30:14.001Z,159.81
2023-01-13T05:31:13.987Z,161.09
2023-01-13T05:32:13.979Z,160.67
2023-01-13T05:33:13.938Z,158.87
2023-01-13T05:34:13.929Z,160.93
2023-01-13T05:35:13.892Z,161.64
2023-01-13T05:36:13.901Z,161.51
2023-01-13T05:37:13.853Z,164.77
2023-01-13T05:38:13.828Z,160.40
2023-01-13T05:39:13.802Z,161.25
2023-01-13T05:40:13.761Z,162.19
2023-01-13T05:41:13.745Z,160.21
2023-01-13T05:42:13.747Z,160.09
2023-01-13T05:43:13.710Z,158.57
2023-01-13T05:44:13.666Z,158.45
2023-01-13T05:45:13.648Z,161.71
2023-01-13T05:46:13.609Z,161.27
2023-01-13T05:47:13.606Z,163.48
2023-01-13T05:48:13.543Z,159.53
2023-01-13T05:49:13.518Z,159.73
2023-01-13T05:50:13.498Z,160.06
2023-01-13T05:51:13.498Z,160.25
2023-01-13T05:52:13.461Z,157.75
2023-01-13T05:53:13.431Z,160.01
2023-01-13T05:54:13.401Z,158.17
2023-01-13T05:55:13.374Z,159.34
2023-01-13T05:56:13.359Z,158.44
2023-01-13T05:57:13.341Z,153.21
2023-01-13T05:58:13.337Z,159.34
2023-01-13T05:59:13.310Z,152.55
2023-01-13T06:00:13.281Z,147.74
2023-01-13T06:01:13.283Z,154.53
2023-01-13T06:02:13.237Z,152.55
2023-01-13T06:03:13.265Z,150.52
2023-01-13T06:04:13.205Z,151.22
2023-01-13T06:05:13.162Z,149.66
2023-01-13T06:06:13.116Z,150.81
2023-01-13T06:07:13.134Z,145.53
2023-01-13T06:08:13.092Z,148.08
2023-01-13T06:09:13.069Z,147.17
2023-01-13T06:10:13.043Z,148.18
2023-01-13T06:11:13.038Z,145.14
2023-01-13T06:12:13.027Z,146.60
2023-01-13T06:13:12.992Z,145.95
2023-01-13T06:14:12.957Z,140.25
2023-01-13T06:15:12.926Z,143.29
2023-01-13T06:16:12.956Z,140.26
2023-01-13T06:17:12.889Z,141.60
2023-01-13T06:18:12.905Z,142.95
2023-01-13T06:19:12.883Z,141.71
2023-01-13T06:20:12.873Z,136.70
2023-01-13T06:21:12.821Z,137.59
2023-01-13T06:22:12.811Z,140.60
2023-01-13T06:23:12.814Z,141.70
2023-01-13T06:24:12.764Z,137.21
2023-01-13T06:25:12.732Z,134.35
2023-01-13T06:26:12.729Z,134.95
2023-01-13T06:27:12.711Z,137.12
2023-01-13T06:28:12.688Z,137.25
2023-01-13T06:29:12.661Z,133.85
2023-01-13T06:30:12.612Z,134.02
2023-01-13T06:31:12.758Z,116.20
2023-01-13T06:32:12.580Z,58.75
2023-01-13T06:33:12.600Z,20.06
2023-01-13T06:34:12.609Z,30.67
2023-01-13T06:35:12.654Z,52.41
2023-01-13T06:36:12.661Z,27.53
2023-01-13T06:37:12.674Z,21.15
2023-01-13T06:38:12.740Z,45.20
2023-01-13T06:39:12.768Z,44.07
2023-01-13T06:40:12.815Z,38.86
2023-01-13T06:41:12.837Z,31.47
2023-01-13T06:42:12.870Z,26.70
2023-01-13T06:43:15.802Z,32.50
2023-01-13T06:44:12.938Z,25.00
2023-01-13T06:45:12.943Z,25.00
2023-01-13T06:46:12.998Z,26.35
2023-01-13T06:47:12.974Z,27.25
2023-01-13T06:48:12.998Z,29.09
2023-01-13T06:49:13.046Z,28.21
2023-01-13T06:50:13.127Z,28.48
2023-01-13T06:51:13.071Z,43.71
2023-01-13T06:52:13.066Z,58.98
2023-01-13T06:53:13.101Z,72.31
2023-01-13T06:54:13.121Z,74.28
2023-01-13T06:55:13.121Z,82.22
2023-01-13T06:56:13.135Z,87.49
2023-01-13T06:57:13.174Z,94.42
2023-01-13T06:58:13.135Z,99.83
2023-01-13T06:59:13.139Z,105.33
2023-01-13T07:00:13.141Z,114.10
2023-01-13T07:01:13.263Z,136.38
2023-01-13T07:02:13.227Z,142.51
2023-01-13T07:03:13.128Z,146.25
2023-01-13T07:04:15.581Z,151.19
2023-01-13T07:05:19.109Z,151.43
2023-01-13T07:06:19.537Z,151.80
2023-01-13T07:07:18.614Z,151.83
2023-01-13T07:08:19.741Z,152.09
2023-01-13T07:09:18.596Z,152.12
2023-01-13T07:10:18.151Z,152.32
2023-01-13T07:11:15.917Z,152.27
2023-01-13T07:12:17.879Z,152.38
2023-01-13T07:13:17.897Z,152.43
2023-01-13T07:14:18.136Z,152.59
2023-01-13T07:15:18.079Z,152.64
2023-01-13T07:16:18.015Z,152.78
2023-01-13T07:17:17.554Z,152.97
2023-01-13T07:18:13.071Z,153.05
2023-01-13T07:19:15.401Z,158.93
2023-01-13T07:20:15.137Z,153.09
2023-01-13T07:21:15.535Z,153.15
2023-01-13T07:22:12.987Z,153.22
2023-01-13T07:23:13.008Z,159.94
2023-01-13T07:24:12.993Z,153.20
2023-01-13T07:25:12.958Z,160.09
2023-01-13T07:26:12.940Z,170.63
2023-01-13T07:27:12.934Z,188.21
2023-01-13T07:28:12.916Z,212.38
2023-01-13T07:29:12.892Z,213.43
2023-01-13T07:30:12.836Z,214.22
2023-01-13T07:31:12.860Z,212.71
2023-01-13T07:32:12.804Z,212.99
2023-01-13T07:33:12.829Z,215.04
2023-01-13T07:34:12.766Z,217.54
2023-01-13T07:35:12.736Z,217.88
2023-01-13T07:36:12.719Z,218.36
2023-01-13T07:37:12.673Z,219.01
2023-01-13T07:38:12.664Z,223.67
2023-01-13T07:39:12.640Z,218.11
2023-01-13T07:40:12.607Z,221.62
2023-01-13T07:41:12.578Z,220.80
2023-01-13T07:42:12.546Z,208.81
2023-01-13T07:43:12.657Z,213.11
2023-01-13T07:44:12.492Z,216.49
2023-01-13T07:45:12.578Z,227.40
2023-01-13T07:46:12.789Z,243.12
2023-01-13T07:47:12.520Z,239.20
2023-01-13T07:48:12.486Z,201.31
2023-01-13T07:49:12.496Z,180.23
2023-01-13T07:50:16.159Z,183.48
2023-01-13T07:57:24.672Z,183.54
2023-01-13T08:04:13.084Z,155.00
2023-01-13T08:05:13.087Z,157.86
2023-01-13T08:06:13.082Z,155.56
2023-01-13T08:07:13.101Z,151.89
2023-01-13T08:08:13.074Z,145.83
2023-01-13T08:09:13.134Z,145.25
2023-01-13T08:10:13.102Z,148.45
2023-01-13T08:11:13.096Z,139.30
2023-01-13T08:12:13.109Z,139.75
2023-01-13T08:13:13.094Z,144.33
2023-01-13T08:14:13.093Z,141.33
2023-01-13T08:15:13.135Z,133.03
2023-01-13T08:16:13.157Z,133.04
2023-01-13T08:17:13.097Z,134.16
2023-01-13T08:18:13.070Z,136.79
2023-01-13T08:19:13.037Z,143.25
2023-01-13T08:20:13.043Z,151.71
2023-01-13T08:21:13.174Z,155.81
2023-01-13T08:22:12.970Z,160.66
2023-01-13T08:23:12.963Z,164.13
2023-01-13T08:24:13.000Z,168.73
2023-01-13T08:25:12.946Z,175.16
2023-01-13T08:26:12.930Z,171.94
2023-01-13T08:27:12.908Z,178.13
2023-01-13T08:28:12.907Z,181.23
2023-01-13T08:33:13.357Z,187.34
2023-01-13T08:47:12.759Z,220.32
2023-01-13T08:50:12.754Z,218.00
2023-01-13T10:25:11.788Z,213.29
2023-01-13T10:26:11.757Z,212.81
2023-01-13T10:27:11.655Z,209.76
2023-01-13T10:28:11.681Z,207.85
2023-01-13T10:29:11.621Z,209.44
2023-01-13T10:30:11.577Z,209.18
2023-01-13T10:31:11.639Z,207.01
2023-01-13T10:32:11.531Z,207.80
2023-01-13T10:33:11.521Z,208.02
2023-01-13T10:34:11.501Z,204.61
2023-01-13T10:35:11.465Z,204.61
2023-01-13T10:36:11.433Z,206.15
2023-01-13T10:37:11.440Z,201.56
2023-01-13T10:38:11.429Z,202.71
2023-01-13T10:39:11.386Z,203.59
2023-01-13T10:40:11.336Z,203.42
2023-01-13T10:41:11.370Z,203.87
2023-01-13T10:42:11.344Z,200.89
2023-01-13T10:43:11.291Z,199.39
2023-01-13T10:44:11.253Z,348.62
2023-01-13T10:45:11.439Z,291.86
2023-01-13T10:46:11.299Z,235.46
2023-01-13T10:47:11.180Z,216.89
2023-01-13T10:48:11.181Z,213.07
2023-01-13T10:49:11.165Z,191.05
2023-01-13T10:50:11.198Z,177.13
2023-01-13T10:51:11.117Z,164.84
2023-01-13T10:52:11.088Z,157.40
2023-01-13T10:53:11.069Z,144.44
2023-01-13T10:54:11.024Z,144.33
2023-01-13T10:55:11.038Z,139.69
2023-01-13T10:56:11.047Z,126.93
2023-01-13T10:57:10.982Z,126.79
2023-01-13T10:58:10.965Z,126.25
2023-01-13T10:59:10.918Z,118.33
2023-01-13T11:00:10.901Z,119.22
2023-01-13T11:01:10.866Z,111.30
2023-01-13T11:02:24.916Z,111.43
2023-01-13T11:04:10.842Z,97.34
2023-01-13T11:05:10.825Z,93.51
2023-01-13T11:06:10.749Z,96.97
2023-01-13T11:07:10.744Z,96.84
2023-01-13T11:50:22.676Z,83.77
2023-01-13T11:56:24.196Z,84.35
2023-01-13T11:57:12.035Z,84.04
2023-01-13T11:58:12.363Z,91.01
2023-01-13T12:00:14.026Z,84.27
2023-01-13T12:01:16.219Z,84.61
2023-01-13T12:02:16.457Z,84.80
2023-01-13T12:05:03.555Z,84.97
2023-01-13T12:06:25.004Z,83.83
2023-01-13T12:07:26.243Z,85.59
2023-01-13T12:11:52.274Z,25.00
2023-01-13T12:23:39.850Z,26.40
2023-01-13T12:24:39.812Z,25.00
2023-01-13T12:25:39.751Z,27.34
2023-01-13T12:26:39.718Z,27.98
2023-01-13T12:27:39.641Z,29.60
2023-01-13T12:28:39.663Z,33.26
2023-01-13T12:29:39.787Z,37.21
2023-01-13T12:30:39.509Z,42.65
2023-01-13T12:31:39.479Z,45.29
2023-01-13T12:32:39.381Z,49.07
2023-01-13T12:33:39.319Z,45.14
2023-01-13T12:34:39.279Z,47.00
2023-01-13T12:35:39.247Z,44.67
2023-01-13T12:36:39.163Z,44.86
2023-01-13T12:37:39.111Z,46.02
2023-01-13T12:38:39.074Z,46.06
2023-01-13T12:39:39.005Z,45.68
2023-01-13T12:40:38.973Z,43.17
2023-01-13T12:44:38.730Z,41.39
2023-01-13T12:45:38.727Z,40.59
2023-01-13T12:46:38.653Z,43.65
2023-01-13T12:47:38.583Z,40.03
2023-01-13T12:48:38.528Z,38.88
2023-01-13T12:49:38.480Z,36.80
2023-01-13T12:50:38.451Z,39.25
2023-01-13T12:51:38.389Z,38.77
2023-01-13T12:52:38.338Z,40.43
2023-01-13T12:53:38.279Z,35.37
2023-01-13T12:54:38.225Z,37.84
2023-01-13T12:55:38.421Z,36.73
2023-01-13T12:56:38.151Z,35.73
2023-01-13T12:57:38.097Z,37.11
2023-01-13T12:58:38.027Z,32.75
2023-01-13T12:59:37.983Z,32.66
2023-01-13T13:00:37.942Z,34.60
2023-01-13T13:01:38.068Z,35.44
2023-01-13T13:02:37.909Z,34.40
2023-01-13T13:03:37.791Z,34.13
2023-01-13T13:04:37.727Z,37.06
2023-01-13T13:05:37.698Z,35.03
2023-01-13T13:06:37.636Z,35.19
2023-01-13T13:07:37.588Z,29.82
2023-01-13T13:08:37.527Z,31.79
2023-01-13T13:09:37.473Z,26.23
2023-01-13T13:10:37.472Z,30.32
2023-01-13T13:11:37.375Z,28.74
2023-01-13T13:12:37.338Z,31.12
2023-01-13T13:13:37.287Z,32.00
2023-01-13T13:14:37.305Z,29.41
2023-01-13T13:15:37.200Z,27.02
2023-01-13T13:16:37.261Z,29.10
2023-01-13T13:17:37.094Z,26.59
2023-01-13T13:18:37.072Z,30.51
2023-01-13T13:19:36.998Z,29.18
2023-01-13T13:20:36.976Z,31.99
2023-01-13T13:21:36.923Z,27.32
2023-01-13T13:22:36.855Z,26.99
2023-01-13T13:23:36.800Z,28.92
2023-01-13T13:24:36.747Z,26.86
2023-01-13T13:25:36.696Z,27.23
2023-01-13T13:26:36.661Z,29.60
2023-01-13T13:27:36.581Z,27.87
2023-01-13T13:28:36.530Z,31.03
2023-01-13T13:29:36.505Z,28.80
2023-01-13T13:30:36.566Z,26.98
2023-01-13T13:31:36.391Z,26.83
2023-01-13T13:32:36.336Z,27.53
2023-01-13T13:33:37.823Z,27.87
2023-01-13T13:34:36.240Z,27.92
2023-01-13T13:35:36.192Z,27.84
2023-01-13T13:36:36.153Z,26.73
2023-01-13T13:37:36.066Z,28.83
2023-01-13T13:38:36.025Z,25.04
2023-01-13T13:39:37.602Z,25.90
2023-01-13T13:40:35.921Z,26.21
2023-01-13T13:41:35.912Z,26.90
2023-01-13T13:42:35.820Z,26.46
2023-01-13T13:43:35.773Z,26.64
2023-01-13T13:44:35.727Z,24.92
2023-01-13T13:45:36.628Z,29.68
2023-01-13T13:46:35.712Z,30.48
2023-01-13T13:47:35.567Z,28.33
2023-01-13T13:48:35.517Z,26.04
2023-01-13T13:49:35.483Z,26.74
2023-01-13T13:50:35.439Z,26.44
2023-01-13T13:51:35.393Z,30.32
2023-01-13T13:52:35.342Z,26.70
2023-01-13T13:53:35.296Z,30.54
2023-01-13T13:54:35.225Z,31.82
2023-01-13T13:55:35.194Z,31.98
2023-01-13T13:56:35.132Z,30.13
2023-01-13T13:57:35.076Z,25.00
2023-01-13T13:58:35.041Z,25.83
2023-01-13T13:59:34.976Z,31.53
2023-01-13T14:00:34.924Z,25.00
2023-01-13T14:01:35.040Z,29.20
2023-01-13T14:02:34.825Z,29.20
2023-01-13T14:03:34.774Z,28.24
2023-01-13T14:04:34.775Z,29.36
2023-01-13T14:05:34.697Z,33.32
2023-01-13T14:06:34.627Z,33.04
2023-01-13T14:07:34.592Z,36.14
2023-01-13T14:08:34.487Z,28.51
2023-01-13T14:09:34.448Z,28.75
2023-01-13T14:10:34.431Z,29.22
2023-01-13T14:11:34.338Z,28.25
2023-01-13T14:12:34.405Z,30.47
2023-01-13T14:13:34.239Z,23.24
2023-01-13T14:14:34.209Z,27.86
2023-01-13T14:15:34.197Z,33.37
2023-01-13T14:16:36.152Z,33.43
2023-01-13T14:17:34.052Z,36.44
2023-01-13T14:18:34.003Z,35.88
2023-01-13T14:19:33.948Z,37.65
2023-01-13T14:20:33.910Z,38.21
2023-01-13T14:21:33.887Z,38.48
2023-01-13T14:22:33.949Z,40.95
2023-01-13T14:23:33.756Z,38.52
2023-01-13T14:24:33.724Z,40.70
2023-01-13T14:25:33.695Z,43.06
2023-01-13T14:26:33.644Z,38.25
2023-01-13T14:27:34.878Z,40.23
2023-01-13T14:28:33.573Z,38.80
2023-01-13T14:29:33.505Z,37.87
2023-01-13T14:30:33.448Z,39.90
2023-01-13T14:31:33.403Z,40.43
2023-01-13T14:32:33.390Z,40.26
2023-01-13T14:33:33.317Z,38.97
2023-01-13T14:34:33.398Z,37.97
2023-01-13T14:35:33.240Z,39.14
2023-01-13T14:36:33.209Z,35.22
2023-01-13T14:37:33.159Z,36.69
2023-01-13T14:38:33.113Z,35.78
2023-01-13T14:39:33.094Z,36.06
2023-01-13T14:40:33.035Z,34.23
2023-01-13T14:41:32.994Z,37.88
2023-01-13T14:42:32.965Z,35.89
2023-01-13T14:43:32.911Z,32.36
2023-01-13T14:44:32.859Z,34.38
2023-01-13T14:45:32.819Z,31.70
2023-01-13T14:46:32.812Z,33.52
2023-01-13T14:47:32.745Z,38.15
2023-01-13T14:48:32.696Z,33.52
2023-01-13T14:49:32.658Z,31.38
2023-01-13T14:50:32.612Z,30.24
2023-01-13T14:51:32.572Z,29.25
2023-01-13T14:52:32.564Z,29.23
2023-01-13T14:53:32.495Z,28.64
2023-01-13T14:54:32.435Z,32.53
2023-01-13T14:55:32.384Z,32.74
2023-01-13T14:56:32.349Z,31.87
2023-01-13T14:57:32.336Z,32.81
2023-01-13T14:58:32.291Z,30.17
2023-01-13T14:59:32.235Z,33.11
2023-01-13T15:00:32.209Z,30.85
2023-01-13T15:01:32.292Z,31.90
2023-01-13T15:02:34.012Z,30.24
2023-01-13T15:03:32.225Z,30.11
2023-01-13T15:04:33.189Z,30.32
2023-01-13T15:05:32.125Z,30.28
2023-01-13T15:06:32.119Z,30.80
2023-01-13T15:07:32.034Z,28.21
2023-01-13T15:08:33.457Z,30.80
2023-01-13T15:09:32.054Z,28.77
2023-01-13T15:10:32.018Z,35.38
2023-01-13T15:11:31.970Z,31.26
2023-01-13T15:12:31.957Z,35.28
2023-01-13T15:13:31.918Z,33.15
2023-01-13T15:14:31.849Z,29.20
2023-01-13T15:15:31.813Z,29.44
2023-01-13T15:16:33.940Z,30.48
2023-01-13T15:17:31.749Z,29.56
2023-01-13T15:18:31.713Z,31.52
2023-01-13T15:19:31.652Z,26.59
2023-01-13T15:20:31.603Z,27.79
2023-01-13T15:21:31.565Z,29.63
2023-01-13T15:22:31.530Z,31.04
2023-01-13T15:23:31.504Z,31.47
2023-01-13T15:24:31.442Z,28.85
2023-01-13T15:25:31.422Z,30.67
2023-01-13T15:26:31.360Z,31.68
2023-01-13T15:27:31.319Z,30.22
2023-01-13T15:28:31.300Z,29.29
2023-01-13T15:29:31.262Z,33.23
2023-01-13T15:30:31.218Z,32.41
2023-01-13T15:31:31.178Z,33.67
2023-01-13T15:32:31.118Z,33.83
2023-01-13T15:33:31.093Z,27.55
2023-01-13T15:34:31.032Z,28.60
2023-01-13T15:35:31.002Z,29.68
2023-01-13T15:36:30.963Z,29.79
2023-01-13T15:37:30.913Z,30.65
2023-01-13T15:38:30.870Z,32.72
2023-01-13T15:39:30.867Z,31.83
2023-01-13T15:40:30.806Z,29.97
2023-01-13T15:41:30.766Z,31.73
2023-01-13T15:42:30.734Z,30.69
2023-01-13T15:43:30.695Z,31.95
2023-01-13T15:44:30.641Z,29.55
2023-01-13T15:45:30.608Z,30.98
2023-01-13T15:46:30.638Z,34.42
2023-01-13T15:47:30.567Z,29.21
2023-01-13T15:48:30.546Z,31.36
2023-01-13T15:49:30.484Z,31.11